createdAt,value
2023-05-08T00:00:38.685Z,10.64
2023-05-08T00:03:06.427Z,10.46
2023-05-08T00:05:34.012Z,10.53
2023-05-08T00:08:01.707Z,10.34
2023-05-08T00:10:29.883Z,10.45
2023-05-08T00:12:57.908Z,10.68
2023-05-08T00:15:25.535Z,10.28
2023-05-08T00:17:54.479Z,10.42
2023-05-08T00:20:22.170Z,10.46
2023-05-08T00:22:49.674Z,10.49
2023-05-08T00:25:17.334Z,10.41
2023-05-08T00:27:44.935Z,10.22
2023-05-08T00:30:13.943Z,10.23
2023-05-08T00:32:41.691Z,10.22
2023-05-08T00:35:10.805Z,10.12
2023-05-08T00:37:40.656Z,10.11
2023-05-08T00:40:09.986Z,10.17
2023-05-08T00:42:37.703Z,10.15
2023-05-08T00:45:06.147Z,10.26
2023-05-08T00:47:33.896Z,10.28
2023-05-08T00:50:01.832Z,10.21
2023-05-08T00:52:32.029Z,10.13
2023-05-08T00:55:00.410Z,10.09
2023-05-08T00:57:27.983Z,10.04
2023-05-08T00:59:56.585Z,10.05
2023-05-08T01:02:24.145Z,10.08
2023-05-08T01:04:52.072Z,10.05
2023-05-08T01:07:19.831Z,9.94
2023-05-08T01:09:48.647Z,9.95
2023-05-08T01:12:19.469Z,9.96
2023-05-08T01:14:56.014Z,10.05
2023-05-08T01:17:27.417Z,9.97
2023-05-08T01:20:09.474Z,9.88
2023-05-08T01:23:00.670Z,9.79
2023-05-08T01:25:51.700Z,9.74
2023-05-08T01:29:13.128Z,9.70
2023-05-08T01:31:51.362Z,9.54
2023-05-08T01:34:22.913Z,9.57
2023-05-08T01:36:53.254Z,9.64
2023-05-08T01:39:22.763Z,9.70
2023-05-08T01:41:57.222Z,9.74
2023-05-08T01:44:29.769Z,9.65
2023-05-08T01:46:58.050Z,9.57
2023-05-08T01:49:29.199Z,9.52
2023-05-08T01:52:00.238Z,9.54
2023-05-08T01:54:30.921Z,9.53
2023-05-08T01:57:00.207Z,9.50
2023-05-08T01:59:29.124Z,9.53
2023-05-08T02:01:58.273Z,9.61
2023-05-08T02:04:27.953Z,9.44
2023-05-08T02:06:56.982Z,9.25
2023-05-08T02:09:25.413Z,9.14
2023-05-08T02:11:54.211Z,9.01
2023-05-08T02:14:22.574Z,9.05
2023-05-08T02:16:52.180Z,8.97
2023-05-08T02:19:21.375Z,8.93
2023-05-08T02:21:51.921Z,9.01
2023-05-08T02:24:19.791Z,9.07
2023-05-08T02:26:47.415Z,9.07
2023-05-08T02:29:15.097Z,9.01
2023-05-08T02:31:42.913Z,9.10
2023-05-08T02:34:11.067Z,9.08
2023-05-08T02:36:39.032Z,9.01
2023-05-08T02:39:09.030Z,9.05
2023-05-08T02:41:37.052Z,9.03
2023-05-08T02:44:05.711Z,9.03
2023-05-08T02:46:39.105Z,9.05
2023-05-08T02:49:09.224Z,9.04
2023-05-08T02:51:42.355Z,9.07
2023-05-08T02:54:12.693Z,9.06
2023-05-08T02:56:44.727Z,9.06
2023-05-08T02:59:17.753Z,9.13
2023-05-08T03:01:49.530Z,8.93
2023-05-08T03:04:25.902Z,8.97
2023-05-08T03:06:56.452Z,9.05
2023-05-08T03:09:29.514Z,8.96
2023-05-08T03:12:03.782Z,9.06
2023-05-08T03:14:33.374Z,9.09
2023-05-08T03:17:02.073Z,9.02
2023-05-08T03:19:32.843Z,8.92
2023-05-08T03:22:01.745Z,8.79
2023-05-08T03:24:32.422Z,8.73
2023-05-08T03:27:00.290Z,8.61
2023-05-08T03:29:28.277Z,8.59
2023-05-08T03:31:58.143Z,8.45
2023-05-08T03:34:26.442Z,8.38
2023-05-08T03:36:53.907Z,8.38
2023-05-08T03:39:21.386Z,8.37
2023-05-08T03:41:50.329Z,8.34
2023-05-08T03:44:18.979Z,8.37
2023-05-08T03:46:47.891Z,8.33
2023-05-08T03:49:15.887Z,8.40
2023-05-08T03:51:43.649Z,8.39
2023-05-08T03:54:11.354Z,8.30
2023-05-08T03:56:38.847Z,8.39
2023-05-08T03:59:16.921Z,8.26
2023-05-08T04:01:49.919Z,8.36
2023-05-08T04:04:19.877Z,8.35
2023-05-08T04:06:51.442Z,8.43
2023-05-08T04:09:30.012Z,8.28
2023-05-08T04:12:03.260Z,8.25
2023-05-08T04:14:36.437Z,8.34
2023-05-08T04:17:08.355Z,8.42
2023-05-08T04:19:39.862Z,8.50
2023-05-08T04:22:09.338Z,8.52
2023-05-08T04:24:42.289Z,8.70
2023-05-08T04:27:11.117Z,8.65
2023-05-08T04:29:40.497Z,8.75
2023-05-08T04:32:09.635Z,8.46
2023-05-08T04:34:37.849Z,8.50
2023-05-08T04:37:07.867Z,8.59
2023-05-08T04:39:36.002Z,8.57
2023-05-08T04:42:04.802Z,8.71
2023-05-08T04:44:34.884Z,8.73
2023-05-08T04:47:03.730Z,8.61
2023-05-08T04:49:31.907Z,8.59
2023-05-08T04:51:59.525Z,8.51
2023-05-08T04:54:27.021Z,8.51
2023-05-08T04:56:54.775Z,8.69
2023-05-08T04:59:22.336Z,8.59
2023-05-08T05:01:50.107Z,8.60
2023-05-08T05:04:19.092Z,8.67
2023-05-08T05:06:46.689Z,8.56
2023-05-08T05:09:14.663Z,8.67
2023-05-08T05:11:42.214Z,8.84
2023-05-08T05:14:10.003Z,8.93
2023-05-08T05:16:38.076Z,8.92
2023-05-08T05:19:05.993Z,8.90
2023-05-08T05:21:35.109Z,8.89
2023-05-08T05:24:03.162Z,9.06
2023-05-08T05:26:30.837Z,9.11
2023-05-08T05:28:58.537Z,9.11
2023-05-08T05:31:26.162Z,9.21
2023-05-08T05:33:54.047Z,9.30
2023-05-08T05:36:21.602Z,9.45
2023-05-08T05:38:50.614Z,9.52
2023-05-08T05:41:18.207Z,9.55
2023-05-08T05:43:47.014Z,9.65
2023-05-08T05:46:14.637Z,9.71
2023-05-08T05:48:42.617Z,9.69
2023-05-08T05:51:11.086Z,9.77
2023-05-08T05:53:39.408Z,9.86
2023-05-08T05:56:09.055Z,9.97
2023-05-08T05:58:37.011Z,10.01
2023-05-08T06:01:05.030Z,10.07
2023-05-08T06:06:00.185Z,10.18
2023-05-08T06:08:28.103Z,10.15
2023-05-08T06:10:57.005Z,10.12
2023-05-08T06:13:26.505Z,10.22
2023-05-08T06:15:56.455Z,10.28
2023-05-08T06:18:25.014Z,10.47
2023-05-08T06:20:57.049Z,10.58
2023-05-08T06:23:24.606Z,10.63
2023-05-08T06:25:52.095Z,10.77
2023-05-08T06:28:20.085Z,10.90
2023-05-08T06:30:48.948Z,10.93
2023-05-08T06:33:16.481Z,11.00
2023-05-08T06:35:47.284Z,11.12
2023-05-08T06:38:15.231Z,11.12
2023-05-08T06:40:44.420Z,11.16
2023-05-08T06:43:12.189Z,11.15
2023-05-08T06:45:39.749Z,11.01
2023-05-08T06:48:08.944Z,11.00
2023-05-08T06:50:39.177Z,10.97
2023-05-08T06:53:07.085Z,11.08
2023-05-08T06:55:34.952Z,11.24
2023-05-08T06:58:02.514Z,11.39
2023-05-08T07:00:30.022Z,11.34
2023-05-08T07:02:57.568Z,11.22
2023-05-08T07:05:26.543Z,11.49
2023-05-08T07:07:54.606Z,11.42
2023-05-08T07:10:22.988Z,11.57
2023-05-08T07:12:50.780Z,11.48
2023-05-08T07:17:52.123Z,11.51
2023-05-08T07:20:19.669Z,11.65
2023-05-08T07:22:48.540Z,11.71
2023-05-08T07:25:16.164Z,11.58
2023-05-08T07:27:43.703Z,11.51
2023-05-08T07:30:11.728Z,11.64
2023-05-08T07:32:39.684Z,11.84
2023-05-08T07:35:11.006Z,11.67
2023-05-08T07:37:39.080Z,11.63
2023-05-08T07:40:09.104Z,11.73
2023-05-08T07:42:41.376Z,11.89
2023-05-08T07:45:10.106Z,11.96
2023-05-08T07:47:37.814Z,12.23
2023-05-08T07:50:06.291Z,12.35
2023-05-08T07:52:33.780Z,12.45
2023-05-08T07:55:01.306Z,12.48
2023-05-08T07:57:37.403Z,12.51
2023-05-08T08:00:05.926Z,12.54
2023-05-08T08:02:41.127Z,12.37
2023-05-08T08:05:09.200Z,12.42
2023-05-08T08:07:36.747Z,12.45
2023-05-08T08:10:04.987Z,12.59
2023-05-08T08:12:33.962Z,13.01
2023-05-08T08:15:01.553Z,13.19
2023-05-08T08:17:29.252Z,13.26
2023-05-08T08:19:57.133Z,13.26
2023-05-08T08:22:24.816Z,13.21
2023-05-08T08:24:54.886Z,13.23
2023-05-08T08:27:23.018Z,13.19
2023-05-08T08:29:56.365Z,13.20
2023-05-08T08:32:32.304Z,13.43
2023-05-08T08:34:59.830Z,13.46
2023-05-08T08:37:27.394Z,13.40
2023-05-08T08:39:55.323Z,13.69
2023-05-08T08:42:23.509Z,13.75
2023-05-08T08:44:52.375Z,13.76
2023-05-08T08:47:20.307Z,13.93
2023-05-08T08:49:49.133Z,13.97
2023-05-08T08:52:22.767Z,14.06
2023-05-08T08:54:50.517Z,14.32
2023-05-08T08:57:18.497Z,14.47
2023-05-08T08:59:46.053Z,14.43
2023-05-08T09:02:17.910Z,14.73
2023-05-08T09:04:45.723Z,14.77
2023-05-08T09:07:13.494Z,14.83
2023-05-08T09:09:41.946Z,14.88
2023-05-08T09:12:10.014Z,14.96
2023-05-08T09:14:37.542Z,15.02
2023-05-08T09:17:05.205Z,15.12
2023-05-08T09:19:34.617Z,15.23
2023-05-08T09:22:02.667Z,15.36
2023-05-08T09:24:57.892Z,15.54
2023-05-08T09:27:26.943Z,15.73
2023-05-08T09:30:06.538Z,15.78
2023-05-08T09:32:35.076Z,15.42
2023-05-08T09:35:04.496Z,15.89
2023-05-08T09:37:32.074Z,16.06
2023-05-08T09:40:16.455Z,16.36
2023-05-08T09:42:44.078Z,16.28
2023-05-08T09:45:12.616Z,16.37
2023-05-08T09:47:49.000Z,16.53
2023-05-08T09:50:18.224Z,16.59
2023-05-08T09:52:48.028Z,16.59
2023-05-08T09:55:15.904Z,16.82
2023-05-08T09:57:53.550Z,16.91
2023-05-08T10:00:21.907Z,16.78
2023-05-08T10:02:57.157Z,16.92
2023-05-08T10:05:28.008Z,17.04
2023-05-08T10:07:55.669Z,17.08
2023-05-08T10:10:27.638Z,17.59
2023-05-08T10:12:56.625Z,17.78
2023-05-08T10:15:25.545Z,18.00
2023-05-08T10:17:56.207Z,17.98
2023-05-08T10:20:27.034Z,18.21
2023-05-08T10:22:56.739Z,18.37
2023-05-08T10:25:25.219Z,18.35
2023-05-08T10:27:58.230Z,18.41
2023-05-08T10:30:26.972Z,18.62
2023-05-08T10:32:55.492Z,18.54
2023-05-08T10:35:23.570Z,18.38
2023-05-08T10:37:55.654Z,18.42
2023-05-08T10:40:23.814Z,18.50
2023-05-08T10:42:51.761Z,18.66
2023-05-08T10:45:19.714Z,18.78
2023-05-08T10:47:55.116Z,18.63
2023-05-08T10:50:40.256Z,18.47
2023-05-08T10:53:13.022Z,18.47
2023-05-08T10:55:44.321Z,18.28
2023-05-08T10:58:15.955Z,18.25
2023-05-08T11:01:12.810Z,18.18
2023-05-08T11:03:43.104Z,18.40
2023-05-08T11:06:10.907Z,18.27
2023-05-08T11:08:47.907Z,18.40
2023-05-08T11:11:21.879Z,18.56
2023-05-08T11:13:51.677Z,18.74
2023-05-08T11:16:19.199Z,18.98
2023-05-08T11:19:18.032Z,19.13
2023-05-08T11:22:30.682Z,19.20
2023-05-08T11:25:01.802Z,19.06
2023-05-08T11:27:37.699Z,18.93
2023-05-08T11:30:29.159Z,18.82
2023-05-08T11:32:58.284Z,18.66
2023-05-08T11:35:53.789Z,18.84
2023-05-08T11:38:31.287Z,18.52
2023-05-08T11:41:02.520Z,18.45
2023-05-08T11:43:44.184Z,18.56
2023-05-08T11:46:15.440Z,18.53
2023-05-08T11:48:43.066Z,18.45
2023-05-08T11:51:11.099Z,18.54
2023-05-08T11:53:39.015Z,18.93
2023-05-08T11:56:08.738Z,19.18
2023-05-08T11:58:36.591Z,19.47
2023-05-08T12:01:04.420Z,19.84
2023-05-08T12:03:32.384Z,20.01
2023-05-08T12:06:00.732Z,20.29
2023-05-08T12:08:28.469Z,20.54
2023-05-08T12:10:57.506Z,20.44
2023-05-08T12:13:27.451Z,20.49
2023-05-08T12:15:56.711Z,20.54
2023-05-08T12:18:26.211Z,20.49
2023-05-08T12:20:54.285Z,20.68
2023-05-08T12:23:21.956Z,20.55
2023-05-08T12:25:54.976Z,20.67
2023-05-08T12:28:23.086Z,20.80
2023-05-08T12:30:52.132Z,20.83
2023-05-08T12:33:20.006Z,20.77
2023-05-08T12:35:47.631Z,21.02
2023-05-08T12:38:15.120Z,20.92
2023-05-08T12:40:43.853Z,20.97
2023-05-08T12:43:12.166Z,21.13
2023-05-08T12:45:41.165Z,21.14
2023-05-08T12:48:11.874Z,21.29
2023-05-08T12:50:41.219Z,21.25
2023-05-08T12:53:10.720Z,21.37
2023-05-08T12:55:39.718Z,21.12
2023-05-08T12:58:09.326Z,21.14
2023-05-08T13:00:44.744Z,21.20
2023-05-08T13:03:15.448Z,21.46
2023-05-08T13:05:44.011Z,21.01
2023-05-08T13:08:11.880Z,21.02
2023-05-08T13:10:48.877Z,21.20
2023-05-08T13:13:17.637Z,21.10
2023-05-08T13:15:45.590Z,20.72
2023-05-08T13:18:14.911Z,20.88
2023-05-08T13:20:42.914Z,20.76
2023-05-08T13:23:10.969Z,20.91
2023-05-08T13:25:39.126Z,20.51
2023-05-08T13:28:08.024Z,20.51
2023-05-08T13:30:36.608Z,20.75
2023-05-08T13:33:04.650Z,20.53
2023-05-08T13:35:34.031Z,20.68
2023-05-08T13:38:01.967Z,20.71
2023-05-08T13:40:29.815Z,20.66
2023-05-08T13:42:57.332Z,20.56
2023-05-08T13:45:24.869Z,19.97
2023-05-08T13:47:52.539Z,19.72
2023-05-08T13:50:21.701Z,19.72
2023-05-08T13:52:52.294Z,19.75
2023-05-08T13:55:22.836Z,20.01
2023-05-08T13:57:50.559Z,20.02
2023-05-08T14:00:19.071Z,19.71
2023-05-08T14:02:46.761Z,19.99
2023-05-08T14:05:14.706Z,20.02
2023-05-08T14:07:42.349Z,20.44
2023-05-08T14:10:11.807Z,20.51
2023-05-08T14:12:40.310Z,20.29
2023-05-08T14:15:09.738Z,20.31
2023-05-08T14:17:37.291Z,20.08
2023-05-08T14:20:05.564Z,20.24
2023-05-08T14:22:33.089Z,20.37
2023-05-08T14:25:00.591Z,20.63
2023-05-08T14:27:29.729Z,20.76
2023-05-08T14:29:57.870Z,20.55
2023-05-08T14:32:25.380Z,20.08
2023-05-08T14:34:52.883Z,19.95
2023-05-08T14:37:20.430Z,20.20
2023-05-08T14:39:47.894Z,20.49
2023-05-08T14:42:23.029Z,20.27
2023-05-08T14:44:52.727Z,20.23
2023-05-08T14:47:20.345Z,20.42
2023-05-08T14:49:47.933Z,20.42
2023-05-08T14:52:15.791Z,20.33
2023-05-08T14:54:43.453Z,20.27
2023-05-08T14:57:11.164Z,20.30
2023-05-08T15:02:27.587Z,20.19
2023-05-08T15:04:55.579Z,20.42
2023-05-08T15:07:23.095Z,20.57
2023-05-08T15:09:50.715Z,20.36
2023-05-08T15:12:18.244Z,20.50
2023-05-08T15:14:45.786Z,20.33
2023-05-08T15:17:13.366Z,20.26
2023-05-08T15:19:42.438Z,20.09
2023-05-08T15:22:09.967Z,19.94
2023-05-08T15:24:37.489Z,19.55
2023-05-08T15:27:05.228Z,19.52
2023-05-08T15:29:32.900Z,19.59
2023-05-08T15:32:00.855Z,19.45
2023-05-08T15:34:32.422Z,19.18
2023-05-08T15:37:01.851Z,19.14
2023-05-08T15:39:29.362Z,19.01
2023-05-08T15:41:56.873Z,19.17
2023-05-08T15:44:26.615Z,19.18
2023-05-08T15:46:56.331Z,19.17
2023-05-08T15:49:25.908Z,19.19
2023-05-08T15:51:53.941Z,19.34
2023-05-08T15:54:23.489Z,19.42
2023-05-08T15:56:51.093Z,19.43
2023-05-08T15:59:18.709Z,19.08
2023-05-08T16:01:46.903Z,19.02
2023-05-08T16:04:14.640Z,18.96
2023-05-08T16:06:42.338Z,18.86
2023-05-08T16:09:09.873Z,18.59
2023-05-08T16:11:38.745Z,18.49
2023-05-08T16:14:06.261Z,18.43
2023-05-08T16:16:33.866Z,18.47
2023-05-08T16:19:01.544Z,18.38
2023-05-08T16:21:29.088Z,18.37
2023-05-08T16:23:56.749Z,18.26
2023-05-08T16:26:24.684Z,18.34
2023-05-08T16:28:53.511Z,18.53
2023-05-08T16:31:20.992Z,18.67
2023-05-08T16:33:48.510Z,18.78
2023-05-08T16:36:16.054Z,18.97
2023-05-08T16:38:43.733Z,18.80
2023-05-08T16:41:12.764Z,18.81
2023-05-08T16:43:40.368Z,18.92
2023-05-08T16:46:09.283Z,18.67
2023-05-08T16:48:36.924Z,18.45
2023-05-08T16:51:04.652Z,18.41
2023-05-08T16:53:32.640Z,18.49
2023-05-08T16:56:00.224Z,18.70
2023-05-08T16:58:27.837Z,18.74
2023-05-08T17:00:55.478Z,18.75
2023-05-08T17:03:24.654Z,18.74
2023-05-08T17:05:52.317Z,18.58
2023-05-08T17:08:19.832Z,18.47
2023-05-08T17:10:47.364Z,18.28
2023-05-08T17:13:14.991Z,17.96
2023-05-08T17:15:42.503Z,17.85
2023-05-08T17:18:10.073Z,17.75
2023-05-08T17:20:42.252Z,17.81
2023-05-08T17:23:09.760Z,17.93
2023-05-08T17:25:37.488Z,18.25
2023-05-08T17:28:06.562Z,18.26
2023-05-08T17:30:34.132Z,18.08
2023-05-08T17:33:01.738Z,18.03
2023-05-08T17:35:29.505Z,18.00
2023-05-08T17:37:58.388Z,17.87
2023-05-08T17:40:26.046Z,17.68
2023-05-08T17:42:53.580Z,17.69
2023-05-08T17:45:21.053Z,17.63
2023-05-08T17:47:48.564Z,17.61
2023-05-08T17:50:16.096Z,17.63
2023-05-08T17:52:43.704Z,17.62
2023-05-08T17:55:12.725Z,17.61
2023-05-08T17:57:40.203Z,17.58
2023-05-08T18:00:09.036Z,17.63
2023-05-08T18:02:36.785Z,17.58
2023-05-08T18:05:04.515Z,17.59
2023-05-08T18:07:31.963Z,17.55
2023-05-08T18:09:59.498Z,17.49
2023-05-08T18:12:28.427Z,17.44
2023-05-08T18:14:55.944Z,17.34
2023-05-08T18:17:23.519Z,17.17
2023-05-08T18:19:51.007Z,17.20
2023-05-08T18:22:18.630Z,17.16
2023-05-08T18:24:47.374Z,17.02
2023-05-08T18:27:14.917Z,16.85
2023-05-08T18:29:43.723Z,16.87
2023-05-08T18:32:11.936Z,16.82
2023-05-08T18:34:39.438Z,16.75
2023-05-08T18:37:06.912Z,16.74
2023-05-08T18:39:34.477Z,16.73
2023-05-08T18:42:02.066Z,16.59
2023-05-08T18:44:29.591Z,16.63
2023-05-08T18:46:58.407Z,16.65
2023-05-08T18:49:25.962Z,16.66
2023-05-08T18:51:53.485Z,16.61
2023-05-08T18:54:21.811Z,16.59
2023-05-08T18:56:49.413Z,16.58
2023-05-08T18:59:16.987Z,16.50
2023-05-08T19:01:44.540Z,16.43
2023-05-08T19:04:13.800Z,16.36
2023-05-08T19:06:41.438Z,16.30
2023-05-08T19:09:08.949Z,16.16
2023-05-08T19:11:36.723Z,16.00
2023-05-08T19:14:05.853Z,15.94
2023-05-08T19:16:33.569Z,15.84
2023-05-08T19:19:01.139Z,15.76
2023-05-08T19:21:30.336Z,15.70
2023-05-08T19:23:57.899Z,15.53
2023-05-08T19:26:26.351Z,15.39
2023-05-08T19:28:53.989Z,15.24
2023-05-08T19:31:22.205Z,15.22
2023-05-08T19:33:49.927Z,15.19
2023-05-08T19:36:18.344Z,15.07
2023-05-08T19:38:47.173Z,15.10
2023-05-08T19:41:14.732Z,15.12
2023-05-08T19:43:42.581Z,15.12
2023-05-08T19:46:10.155Z,15.13
2023-05-08T19:48:37.978Z,15.19
2023-05-08T19:51:08.852Z,15.19
2023-05-08T19:53:36.534Z,15.12
2023-05-08T19:56:05.584Z,15.11
2023-05-08T19:58:33.205Z,15.09
2023-05-08T20:01:00.737Z,15.06
2023-05-08T20:03:28.485Z,14.94
2023-05-08T20:05:56.533Z,14.98
2023-05-08T20:08:24.087Z,14.98
2023-05-08T20:10:52.206Z,15.03
2023-05-08T20:13:21.312Z,14.92
2023-05-08T20:15:49.109Z,14.81
2023-05-08T20:18:16.727Z,14.60
2023-05-08T20:20:45.083Z,14.54
2023-05-08T20:23:12.803Z,14.59
2023-05-08T20:25:40.565Z,14.71
2023-05-08T20:28:08.242Z,14.75
2023-05-08T20:30:37.141Z,14.66
2023-05-08T20:33:05.473Z,14.62
2023-05-08T20:35:33.522Z,14.41
2023-05-08T20:38:01.261Z,14.48
2023-05-08T20:40:29.098Z,14.55
2023-05-08T20:43:00.592Z,14.38
2023-05-08T20:45:28.399Z,14.27
2023-05-08T20:47:57.394Z,14.34
2023-05-08T20:50:24.973Z,14.31
2023-05-08T20:52:52.638Z,14.44
2023-05-08T20:55:20.558Z,14.23
2023-05-08T20:57:48.074Z,14.19
2023-05-08T21:00:16.186Z,14.36
2023-05-08T21:02:44.214Z,14.26
2023-05-08T21:05:13.289Z,14.34
2023-05-08T21:07:41.990Z,14.43
2023-05-08T21:10:10.185Z,14.20
2023-05-08T21:12:38.755Z,14.05
2023-05-08T21:15:07.834Z,14.00
2023-05-08T21:17:35.737Z,13.45
2023-05-08T21:20:03.467Z,13.30
2023-05-08T21:22:36.353Z,13.09
2023-05-08T21:25:15.556Z,13.00
2023-05-08T21:27:43.280Z,12.94
2023-05-08T21:30:14.990Z,13.09
2023-05-08T21:32:42.977Z,13.06
2023-05-08T21:35:11.197Z,12.99
2023-05-08T21:37:40.280Z,12.84
2023-05-08T21:40:09.418Z,12.85
2023-05-08T21:42:37.236Z,12.67
2023-05-08T21:45:05.393Z,12.43
2023-05-08T21:47:32.950Z,12.29
2023-05-08T21:50:00.499Z,12.64
2023-05-08T21:52:28.186Z,12.92
2023-05-08T21:54:57.043Z,12.79
2023-05-08T21:57:24.535Z,12.47
2023-05-08T21:59:52.187Z,12.53
2023-05-08T22:02:20.011Z,12.35
2023-05-08T22:04:47.579Z,12.20
2023-05-08T22:07:15.114Z,12.25
2023-05-08T22:09:42.611Z,12.22
2023-05-08T22:12:11.478Z,12.02
2023-05-08T22:14:39.452Z,12.14
2023-05-08T22:17:06.943Z,11.72
2023-05-08T22:19:34.458Z,11.88
2023-05-08T22:22:01.969Z,11.74
2023-05-08T22:24:29.461Z,11.65
2023-05-08T22:26:57.032Z,11.21
2023-05-08T22:29:26.034Z,11.19
2023-05-08T22:31:53.585Z,11.11
2023-05-08T22:34:21.489Z,11.08
2023-05-08T22:36:48.989Z,10.95
2023-05-08T22:39:16.497Z,11.13
2023-05-08T22:41:44.212Z,11.22
2023-05-08T22:44:12.110Z,11.00
2023-05-08T22:46:41.089Z,11.12
2023-05-08T22:49:09.106Z,10.88
2023-05-08T22:51:36.856Z,10.47
2023-05-08T22:54:04.586Z,10.75
2023-05-08T22:56:35.904Z,10.58
2023-05-08T22:59:03.448Z,10.59
2023-05-08T23:01:31.065Z,10.65
2023-05-08T23:04:00.009Z,10.74
2023-05-08T23:06:27.801Z,10.68
2023-05-08T23:08:55.397Z,10.58
2023-05-08T23:11:22.953Z,10.78
2023-05-08T23:13:50.457Z,10.82
2023-05-08T23:16:18.012Z,10.72
2023-05-08T23:18:45.942Z,10.85
2023-05-08T23:21:14.905Z,10.79
2023-05-08T23:23:42.581Z,10.43
2023-05-08T23:26:10.058Z,10.56
2023-05-08T23:28:37.815Z,10.33
2023-05-08T23:31:05.691Z,10.09
2023-05-08T23:33:33.215Z,10.07
2023-05-08T23:36:01.118Z,10.09
2023-05-08T23:38:29.968Z,10.10
2023-05-08T23:40:57.428Z,10.10
2023-05-08T23:43:24.920Z,9.78
2023-05-08T23:45:52.419Z,9.69
2023-05-08T23:48:19.928Z,9.65
2023-05-08T23:50:48.077Z,9.61
2023-05-08T23:53:16.257Z,9.68
2023-05-08T23:55:45.069Z,9.59
2023-05-08T23:58:12.594Z,9.66
